createdAt,value
2023-10-23T00:01:38.190Z,43.88
2023-10-23T00:04:07.114Z,43.55
2023-10-23T00:06:35.858Z,43.61
2023-10-23T00:09:04.136Z,43.52
2023-10-23T00:11:33.590Z,43.77
2023-10-23T00:14:01.564Z,43.56
2023-10-23T00:16:29.847Z,43.73
2023-10-23T00:18:57.893Z,43.47
2023-10-23T00:21:26.078Z,43.74
2023-10-23T00:23:54.101Z,43.69
2023-10-23T00:26:22.301Z,43.59
2023-10-23T00:28:51.742Z,43.67
2023-10-23T00:31:19.695Z,43.77
2023-10-23T00:33:47.714Z,43.75
2023-10-23T00:36:16.254Z,43.64
2023-10-23T00:38:44.425Z,43.66
2023-10-23T00:41:12.701Z,43.52
2023-10-23T00:43:40.907Z,43.52
2023-10-23T00:46:16.140Z,43.32
2023-10-23T00:48:44.277Z,43.54
2023-10-23T00:51:13.257Z,43.42
2023-10-23T00:53:41.598Z,43.58
2023-10-23T00:56:10.281Z,43.29
2023-10-23T00:58:40.270Z,43.53
2023-10-23T01:01:08.539Z,43.71
2023-10-23T01:03:38.026Z,43.54
2023-10-23T01:06:06.367Z,43.73
2023-10-23T01:08:34.332Z,43.29
2023-10-23T01:11:02.410Z,43.42
2023-10-23T01:13:30.338Z,43.36
2023-10-23T01:15:58.588Z,43.57
2023-10-23T01:18:26.939Z,43.43
2023-10-23T01:20:56.450Z,43.24
2023-10-23T01:23:26.398Z,43.46
2023-10-23T01:25:56.051Z,43.34
2023-10-23T01:28:24.038Z,43.66
2023-10-23T01:30:52.318Z,43.56
2023-10-23T01:33:20.973Z,43.60
2023-10-23T01:35:49.569Z,43.65
2023-10-23T01:38:17.639Z,43.52
2023-10-23T01:40:45.630Z,43.68
2023-10-23T01:43:14.967Z,43.30
2023-10-23T01:45:43.319Z,43.70
2023-10-23T01:48:11.818Z,43.72
2023-10-23T01:50:41.733Z,43.31
2023-10-23T01:53:10.002Z,43.60
2023-10-23T01:55:38.358Z,43.36
2023-10-23T01:58:06.400Z,43.35
2023-10-23T02:00:35.815Z,43.48
2023-10-23T02:03:03.905Z,43.62
2023-10-23T02:05:32.204Z,43.41
2023-10-23T02:08:00.237Z,43.49
2023-10-23T02:10:30.052Z,43.36
2023-10-23T02:12:58.221Z,43.24
2023-10-23T02:15:26.588Z,43.46
2023-10-23T02:17:56.120Z,43.49
2023-10-23T02:20:28.525Z,43.25
2023-10-23T02:22:56.456Z,43.32
2023-10-23T02:25:24.682Z,43.48
2023-10-23T02:27:52.656Z,43.18
2023-10-23T02:30:20.656Z,43.43
2023-10-23T02:32:48.606Z,43.19
2023-10-23T02:35:18.400Z,43.21
2023-10-23T02:37:46.344Z,43.69
2023-10-23T02:40:14.633Z,43.17
2023-10-23T02:42:42.661Z,43.32
2023-10-23T02:45:11.121Z,43.31
2023-10-23T02:47:39.414Z,43.22
2023-10-23T02:50:08.707Z,43.35
2023-10-23T02:52:38.049Z,43.20
2023-10-23T02:55:07.489Z,43.09
2023-10-23T02:57:35.562Z,43.59
2023-10-23T03:00:07.701Z,43.35
2023-10-23T03:02:36.594Z,43.50
2023-10-23T03:05:05.540Z,43.18
2023-10-23T03:07:34.137Z,43.10
2023-10-23T03:10:03.533Z,43.15
2023-10-23T03:12:31.540Z,43.15
2023-10-23T03:14:59.825Z,43.24
2023-10-23T03:17:27.788Z,43.00
2023-10-23T03:19:56.199Z,43.28
2023-10-23T03:22:24.509Z,43.14
2023-10-23T03:24:53.073Z,43.38
2023-10-23T03:27:22.707Z,43.21
2023-10-23T03:29:50.771Z,43.32
2023-10-23T03:32:18.710Z,42.92
2023-10-23T03:34:47.128Z,43.34
2023-10-23T03:37:15.498Z,43.46
2023-10-23T03:39:44.111Z,43.24
2023-10-23T03:42:12.351Z,43.18
2023-10-23T03:44:42.070Z,43.27
2023-10-23T03:47:10.000Z,43.00
2023-10-23T03:49:38.194Z,42.89
2023-10-23T03:52:06.501Z,43.26
2023-10-23T03:54:34.489Z,43.22
2023-10-23T03:57:02.792Z,43.27
2023-10-23T03:59:31.118Z,43.18
2023-10-23T04:02:00.810Z,43.20
2023-10-23T04:04:29.695Z,43.52
2023-10-23T04:06:59.907Z,43.32
2023-10-23T04:09:31.109Z,43.32
2023-10-23T04:11:59.072Z,43.10
2023-10-23T04:14:26.976Z,43.19
2023-10-23T04:16:54.918Z,43.09
2023-10-23T04:19:24.250Z,43.11
2023-10-23T04:21:52.342Z,43.10
2023-10-23T04:24:20.371Z,43.29
2023-10-23T04:26:48.614Z,43.21
2023-10-23T04:29:16.599Z,43.15
2023-10-23T04:31:44.620Z,43.03
2023-10-23T04:34:12.664Z,43.22
2023-10-23T04:36:42.307Z,43.13
2023-10-23T04:39:10.405Z,43.27
2023-10-23T04:41:38.370Z,43.06
2023-10-23T04:44:06.969Z,42.95
2023-10-23T04:46:35.452Z,43.18
2023-10-23T04:49:04.913Z,42.75
2023-10-23T04:51:34.724Z,43.11
2023-10-23T04:54:04.470Z,42.76
2023-10-23T04:56:32.567Z,43.17
2023-10-23T04:59:00.524Z,43.08
2023-10-23T05:01:28.543Z,43.13
2023-10-23T05:03:56.587Z,43.10
2023-10-23T05:06:28.090Z,42.76
2023-10-23T05:08:56.147Z,42.99
2023-10-23T05:11:25.825Z,43.10
2023-10-23T05:13:54.632Z,42.76
2023-10-23T05:16:23.003Z,43.06
2023-10-23T05:18:51.499Z,43.10
2023-10-23T05:21:19.536Z,42.95
2023-10-23T05:23:47.521Z,42.66
2023-10-23T05:26:16.097Z,42.95
2023-10-23T05:28:45.789Z,43.01
2023-10-23T05:31:14.187Z,42.71
2023-10-23T05:33:42.206Z,43.01
2023-10-23T05:36:11.227Z,42.77
2023-10-23T05:38:39.246Z,42.88
2023-10-23T05:41:09.144Z,42.82
2023-10-23T05:43:37.349Z,42.78
2023-10-23T05:46:07.236Z,42.52
2023-10-23T05:48:37.747Z,42.77
2023-10-23T05:51:07.028Z,42.70
2023-10-23T05:53:35.085Z,42.83
2023-10-23T05:56:04.892Z,42.81
2023-10-23T05:58:33.176Z,42.70
2023-10-23T06:01:07.393Z,42.85
2023-10-23T06:03:36.235Z,42.73
2023-10-23T06:06:04.997Z,42.83
2023-10-23T06:08:33.249Z,42.75
2023-10-23T06:11:01.640Z,42.65
2023-10-23T06:13:29.641Z,42.67
2023-10-23T06:16:03.912Z,42.79
2023-10-23T06:18:33.630Z,42.64
2023-10-23T06:21:04.609Z,42.84
2023-10-23T06:23:33.968Z,42.62
2023-10-23T06:26:02.457Z,42.85
2023-10-23T06:28:30.464Z,42.79
2023-10-23T06:30:58.515Z,42.95
2023-10-23T06:33:26.504Z,42.54
2023-10-23T06:36:02.078Z,42.82
2023-10-23T06:38:30.569Z,42.61
2023-10-23T06:41:03.586Z,42.59
2023-10-23T06:43:31.649Z,42.73
2023-10-23T06:46:02.189Z,42.59
2023-10-23T06:48:30.871Z,42.50
2023-10-23T06:50:59.022Z,42.47
2023-10-23T06:53:28.392Z,42.78
2023-10-23T06:55:56.930Z,42.64
2023-10-23T06:58:24.950Z,42.71
2023-10-23T07:00:53.261Z,42.47
2023-10-23T07:03:21.898Z,42.52
2023-10-23T07:05:50.190Z,42.33
2023-10-23T07:08:18.181Z,42.60
2023-10-23T07:10:47.564Z,42.48
2023-10-23T07:13:22.829Z,42.69
2023-10-23T07:15:52.058Z,42.61
2023-10-23T07:18:20.666Z,42.60
2023-10-23T07:20:58.198Z,42.47
2023-10-23T07:23:26.868Z,42.50
2023-10-23T07:26:08.987Z,42.33
2023-10-23T07:28:37.486Z,42.48
2023-10-23T07:31:05.604Z,42.45
2023-10-23T07:33:33.681Z,42.39
2023-10-23T07:36:03.809Z,42.60
2023-10-23T07:38:31.935Z,42.69
2023-10-23T07:41:00.170Z,42.59
2023-10-23T07:43:29.526Z,42.60
2023-10-23T07:46:12.023Z,42.46
2023-10-23T07:48:44.419Z,42.49
2023-10-23T07:51:12.663Z,42.46
2023-10-23T07:53:40.827Z,42.67
2023-10-23T07:56:09.308Z,42.65
2023-10-23T07:58:38.608Z,42.20
2023-10-23T08:01:07.160Z,42.46
2023-10-23T08:03:36.141Z,42.48
2023-10-23T08:06:05.033Z,42.62
2023-10-23T08:08:35.247Z,42.38
2023-10-23T08:11:04.956Z,42.52
2023-10-23T08:13:33.326Z,42.30
2023-10-23T08:16:04.877Z,42.48
2023-10-23T08:21:10.228Z,42.35
2023-10-23T08:23:38.231Z,42.30
2023-10-23T08:26:06.841Z,42.47
2023-10-23T08:28:58.941Z,42.43
2023-10-23T08:31:38.212Z,42.46
2023-10-23T08:34:08.121Z,42.21
2023-10-23T08:36:36.807Z,42.25
2023-10-23T08:39:05.109Z,42.36
2023-10-23T08:41:33.294Z,42.40
2023-10-23T08:44:01.300Z,42.56
2023-10-23T08:46:33.528Z,42.15
2023-10-23T08:49:02.100Z,42.31
2023-10-23T08:51:30.308Z,42.47
2023-10-23T08:54:11.106Z,42.46
2023-10-23T08:56:41.069Z,42.16
2023-10-23T08:59:10.445Z,42.33
2023-10-23T09:01:40.133Z,42.55
2023-10-23T09:04:08.934Z,42.46
2023-10-23T09:06:37.963Z,42.31
2023-10-23T09:09:06.646Z,42.24
2023-10-23T09:11:42.883Z,42.27
2023-10-23T09:14:10.997Z,42.23
2023-10-23T09:16:40.819Z,42.28
2023-10-23T09:19:08.895Z,42.45
2023-10-23T09:21:36.886Z,42.41
2023-10-23T09:24:05.748Z,41.97
2023-10-23T09:26:34.405Z,42.31
2023-10-23T09:29:02.804Z,42.23
2023-10-23T09:31:31.017Z,42.28
2023-10-23T09:34:00.818Z,42.48
2023-10-23T09:36:28.997Z,42.48
2023-10-23T09:39:00.901Z,42.59
2023-10-23T09:41:29.071Z,42.19
2023-10-23T09:43:57.783Z,42.27
2023-10-23T09:46:27.279Z,42.19
2023-10-23T09:49:01.483Z,42.41
2023-10-23T09:51:32.437Z,41.99
2023-10-23T09:54:01.442Z,42.31
2023-10-23T09:56:32.862Z,42.13
2023-10-23T09:59:01.225Z,42.24
2023-10-23T10:01:33.143Z,42.52
2023-10-23T10:04:05.107Z,42.63
2023-10-23T10:06:34.891Z,42.10
2023-10-23T10:09:05.432Z,42.19
2023-10-23T10:11:33.437Z,42.40
2023-10-23T10:14:01.382Z,42.38
2023-10-23T10:16:29.672Z,42.00
2023-10-23T10:18:57.839Z,42.25
2023-10-23T10:21:26.322Z,42.18
2023-10-23T10:23:59.599Z,42.56
2023-10-23T10:26:27.560Z,42.23
2023-10-23T10:28:56.575Z,42.29
2023-10-23T10:31:24.708Z,42.36
2023-10-23T10:34:25.550Z,42.40
2023-10-23T10:36:47.358Z,42.27
2023-10-23T10:39:18.299Z,42.30
2023-10-23T10:41:46.247Z,41.92
2023-10-23T10:44:14.776Z,42.59
2023-10-23T10:46:42.969Z,42.40
2023-10-23T10:49:11.576Z,42.41
2023-10-23T10:51:39.807Z,42.24
2023-10-23T10:54:09.382Z,42.34
2023-10-23T10:56:39.068Z,42.08
2023-10-23T10:59:07.334Z,42.34
2023-10-23T11:01:35.459Z,42.12
2023-10-23T11:04:04.223Z,42.17
2023-10-23T11:06:32.566Z,42.25
2023-10-23T11:09:00.838Z,42.20
2023-10-23T11:11:29.219Z,42.39
2023-10-23T11:14:03.661Z,42.26
2023-10-23T11:16:32.722Z,42.46
2023-10-23T11:19:01.049Z,42.01
2023-10-23T11:21:28.985Z,42.23
2023-10-23T11:23:57.423Z,42.20
2023-10-23T11:26:25.792Z,42.30
2023-10-23T11:28:53.789Z,41.99
2023-10-23T11:31:24.627Z,42.16
2023-10-23T11:33:53.760Z,42.22
2023-10-23T11:36:22.736Z,42.33
2023-10-23T11:38:50.739Z,42.50
2023-10-23T11:41:18.814Z,42.09
2023-10-23T11:43:46.745Z,42.04
2023-10-23T11:46:15.048Z,42.05
2023-10-23T11:48:44.543Z,42.42
2023-10-23T11:51:12.701Z,42.27
2023-10-23T11:53:40.887Z,42.22
2023-10-23T11:56:09.510Z,42.09
2023-10-23T11:58:37.620Z,42.18
2023-10-23T12:01:06.304Z,42.31
2023-10-23T12:03:34.482Z,42.21
2023-10-23T12:06:04.768Z,42.21
2023-10-23T12:08:32.753Z,42.21
2023-10-23T12:11:00.876Z,42.35
2023-10-23T12:13:28.836Z,42.16
2023-10-23T12:15:57.117Z,42.28
2023-10-23T12:18:27.438Z,42.17
2023-10-23T12:20:57.864Z,42.13
2023-10-23T12:23:28.746Z,42.50
2023-10-23T12:25:57.697Z,41.94
2023-10-23T12:28:26.102Z,42.31
2023-10-23T12:30:54.276Z,42.40
2023-10-23T12:33:25.064Z,42.31
2023-10-23T12:35:56.975Z,42.37
2023-10-23T12:38:25.385Z,42.15
2023-10-23T12:40:54.705Z,42.27
2023-10-23T12:43:23.776Z,42.44
2023-10-23T12:45:52.295Z,42.02
2023-10-23T12:48:20.531Z,42.22
2023-10-23T12:50:48.544Z,42.08
2023-10-23T12:53:16.538Z,42.11
2023-10-23T12:55:45.000Z,42.16
2023-10-23T12:58:14.345Z,42.15
2023-10-23T13:00:42.772Z,42.14
2023-10-23T13:03:11.124Z,42.27
2023-10-23T13:05:39.873Z,42.21
2023-10-23T13:08:07.841Z,42.00
2023-10-23T13:10:35.865Z,42.25
2023-10-23T13:13:04.875Z,42.23
2023-10-23T13:15:34.628Z,42.52
2023-10-23T13:18:03.727Z,42.40
2023-10-23T13:20:51.579Z,42.17
2023-10-23T13:23:21.010Z,42.38
2023-10-23T13:25:57.958Z,42.27
2023-10-23T13:28:35.168Z,42.17
2023-10-23T13:31:04.942Z,42.17
2023-10-23T13:33:33.090Z,42.13
2023-10-23T13:36:01.160Z,41.93
2023-10-23T13:38:29.304Z,42.18
2023-10-23T13:40:57.973Z,42.32
2023-10-23T13:43:26.527Z,42.31
2023-10-23T13:45:54.819Z,41.99
2023-10-23T13:48:24.314Z,42.53
2023-10-23T13:50:52.378Z,42.21
2023-10-23T13:53:20.722Z,42.56
2023-10-23T13:55:48.948Z,42.32
2023-10-23T13:58:17.233Z,42.22
2023-10-23T14:00:45.846Z,42.10
2023-10-23T14:03:14.180Z,42.04
2023-10-23T14:05:43.699Z,41.93
2023-10-23T14:08:11.740Z,42.56
2023-10-23T14:10:40.478Z,42.13
2023-10-23T14:13:08.580Z,42.27
2023-10-23T14:15:37.254Z,41.83
2023-10-23T14:18:05.689Z,42.13
2023-10-23T14:20:33.968Z,42.07
2023-10-23T14:23:03.428Z,42.20
2023-10-23T14:25:31.461Z,42.16
2023-10-23T14:27:59.709Z,42.28
2023-10-23T14:30:27.880Z,42.03
2023-10-23T14:32:55.925Z,42.18
2023-10-23T14:35:24.003Z,42.14
2023-10-23T14:37:52.251Z,42.12
2023-10-23T14:40:21.589Z,42.25
2023-10-23T14:42:49.623Z,42.19
2023-10-23T14:45:17.812Z,41.95
2023-10-23T14:47:45.776Z,42.33
2023-10-23T14:50:14.050Z,42.57
2023-10-23T14:52:45.416Z,42.32
2023-10-23T14:55:13.771Z,41.90
2023-10-23T14:57:43.146Z,42.53
2023-10-23T15:00:12.628Z,42.04
2023-10-23T15:02:40.622Z,42.13
2023-10-23T15:05:09.565Z,42.21
2023-10-23T15:07:37.647Z,41.90
2023-10-23T15:10:06.565Z,42.12
2023-10-23T15:12:34.700Z,42.12
2023-10-23T15:15:04.546Z,42.27
2023-10-23T15:17:32.641Z,42.02
2023-10-23T15:20:00.715Z,42.12
2023-10-23T15:22:28.811Z,42.12
2023-10-23T15:24:57.213Z,42.12
2023-10-23T15:27:25.397Z,42.30
2023-10-23T15:29:54.087Z,42.06
2023-10-23T15:32:23.673Z,42.52
2023-10-23T15:34:51.640Z,42.13
2023-10-23T15:37:20.499Z,42.19
2023-10-23T15:39:48.546Z,42.11
2023-10-23T15:42:16.805Z,42.14
2023-10-23T15:44:44.937Z,42.41
2023-10-23T15:47:13.530Z,42.30
2023-10-23T15:49:43.020Z,42.11
2023-10-23T15:52:11.168Z,42.24
2023-10-23T15:54:39.217Z,42.46
2023-10-23T15:57:07.172Z,42.01
2023-10-23T15:59:35.236Z,42.30
2023-10-23T16:02:03.324Z,42.30
2023-10-23T16:04:31.906Z,42.00
2023-10-23T16:07:01.545Z,42.60
2023-10-23T16:09:29.462Z,42.23
2023-10-23T16:12:09.809Z,42.18
2023-10-23T16:14:53.659Z,42.14
2023-10-23T16:17:25.059Z,42.13
2023-10-23T16:19:53.072Z,42.31
2023-10-23T16:22:24.024Z,41.95
2023-10-23T16:24:52.358Z,42.37
2023-10-23T16:27:20.449Z,42.32
2023-10-23T16:29:50.353Z,42.10
2023-10-23T16:32:20.023Z,42.38
2023-10-23T16:34:48.108Z,42.22
2023-10-23T16:37:16.147Z,42.15
2023-10-23T16:39:45.886Z,42.49
2023-10-23T16:42:14.361Z,42.20
2023-10-23T16:44:55.342Z,42.32
2023-10-23T16:47:24.534Z,42.27
2023-10-23T16:49:53.591Z,42.10
2023-10-23T16:52:21.669Z,42.39
2023-10-23T16:54:51.110Z,42.51
2023-10-23T16:57:19.588Z,42.39
2023-10-23T16:59:48.781Z,42.54
2023-10-23T17:02:16.929Z,42.68
2023-10-23T17:04:45.834Z,42.72
2023-10-23T17:07:14.750Z,42.73
2023-10-23T17:09:42.833Z,42.66
2023-10-23T17:12:12.222Z,42.61
2023-10-23T17:14:41.125Z,42.89
2023-10-23T17:17:09.502Z,42.76
2023-10-23T17:19:39.264Z,42.88
2023-10-23T17:22:07.503Z,42.79
2023-10-23T17:24:36.480Z,43.00
2023-10-23T17:27:04.977Z,42.93
2023-10-23T17:29:34.340Z,42.60
2023-10-23T17:32:03.920Z,43.01
2023-10-23T17:34:32.174Z,42.95
2023-10-23T17:37:00.735Z,43.16
2023-10-23T17:39:28.723Z,43.18
2023-10-23T17:41:56.658Z,43.19
2023-10-23T17:44:24.566Z,43.12
2023-10-23T17:46:55.000Z,43.26
2023-10-23T17:49:23.534Z,43.68
2023-10-23T17:51:51.693Z,43.54
2023-10-23T17:54:20.082Z,43.39
2023-10-23T17:56:48.141Z,43.43
2023-10-23T17:59:16.076Z,43.51
2023-10-23T18:01:44.696Z,43.56
2023-10-23T18:04:14.402Z,43.63
2023-10-23T18:06:42.665Z,43.65
2023-10-23T18:09:10.775Z,43.68
2023-10-23T18:11:41.807Z,43.39
2023-10-23T18:14:12.610Z,43.82
2023-10-23T18:16:41.556Z,43.40
2023-10-23T18:19:13.096Z,43.62
2023-10-23T18:21:44.587Z,43.67
2023-10-23T18:24:13.700Z,43.50
2023-10-23T18:26:41.753Z,43.47
2023-10-23T18:29:10.193Z,43.50
2023-10-23T18:31:39.709Z,43.52
2023-10-23T18:34:08.192Z,43.60
2023-10-23T18:36:37.053Z,43.73
2023-10-23T18:39:06.677Z,43.64
2023-10-23T18:41:34.903Z,43.92
2023-10-23T18:44:04.097Z,43.67
2023-10-23T18:46:32.659Z,43.61
2023-10-23T18:49:00.769Z,43.71
2023-10-23T18:51:28.872Z,43.80
2023-10-23T18:53:56.823Z,43.31
2023-10-23T18:56:26.713Z,43.38
2023-10-23T18:58:54.853Z,43.92
2023-10-23T19:01:22.839Z,43.51
2023-10-23T19:03:50.880Z,43.40
2023-10-23T19:06:19.323Z,43.67
2023-10-23T19:08:52.333Z,43.85
2023-10-23T19:11:20.407Z,43.74
2023-10-23T19:13:50.010Z,43.81
2023-10-23T19:16:18.370Z,43.80
2023-10-23T19:18:46.429Z,43.69
2023-10-23T19:21:14.358Z,43.92
2023-10-23T19:23:43.365Z,43.63
2023-10-23T19:26:12.002Z,43.70
2023-10-23T19:28:40.080Z,43.57
2023-10-23T19:31:21.237Z,43.57
2023-10-23T19:33:50.387Z,44.04
2023-10-23T19:36:20.684Z,43.76
2023-10-23T19:38:49.513Z,43.75
2023-10-23T19:41:17.850Z,43.94
2023-10-23T19:43:49.521Z,43.74
2023-10-23T19:46:19.672Z,43.69
2023-10-23T19:48:48.266Z,43.73
2023-10-23T19:51:18.763Z,44.07
2023-10-23T19:53:52.832Z,43.76
2023-10-23T19:56:30.445Z,43.87
2023-10-23T19:59:00.842Z,44.05
2023-10-23T20:01:30.677Z,43.78
2023-10-23T20:03:59.008Z,43.55
2023-10-23T20:06:27.228Z,43.85
2023-10-23T20:08:55.422Z,43.84
2023-10-23T20:11:23.487Z,43.78
2023-10-23T20:13:51.519Z,43.67
2023-10-23T20:16:20.012Z,43.87
2023-10-23T20:18:49.764Z,43.61
2023-10-23T20:21:19.002Z,43.47
2023-10-23T20:23:48.318Z,43.93
2023-10-23T20:26:16.917Z,43.92
2023-10-23T20:28:45.424Z,43.68
2023-10-23T20:31:18.787Z,43.67
2023-10-23T20:33:47.145Z,43.70
2023-10-23T20:36:18.055Z,43.93
2023-10-23T20:38:46.352Z,43.62
2023-10-23T20:41:18.751Z,43.50
2023-10-23T20:43:47.168Z,43.84
2023-10-23T20:46:15.497Z,43.85
2023-10-23T20:48:43.544Z,43.97
2023-10-23T20:51:11.944Z,43.71
2023-10-23T20:53:41.572Z,43.74
2023-10-23T20:56:10.257Z,43.54
2023-10-23T20:58:38.324Z,43.83
2023-10-23T21:01:07.107Z,43.86
2023-10-23T21:03:36.556Z,43.57
2023-10-23T21:06:06.041Z,43.95
2023-10-23T21:08:36.846Z,43.72
2023-10-23T21:11:06.732Z,44.00
2023-10-23T21:13:35.073Z,43.93
2023-10-23T21:16:03.840Z,43.81
2023-10-23T21:18:32.944Z,43.74
2023-10-23T21:21:01.064Z,43.84
2023-10-23T21:23:29.815Z,43.86
2023-10-23T21:25:58.144Z,43.86
2023-10-23T21:28:27.920Z,43.58
2023-10-23T21:30:56.600Z,43.68
2023-10-23T21:33:25.185Z,43.71
2023-10-23T21:35:53.574Z,43.92
2023-10-23T21:38:21.522Z,44.12
2023-10-23T21:40:49.971Z,44.00
2023-10-23T21:43:19.459Z,43.67
2023-10-23T21:45:55.919Z,44.14
2023-10-23T21:48:30.539Z,43.85
2023-10-23T21:50:58.686Z,43.64
2023-10-23T21:53:27.142Z,43.92
2023-10-23T21:55:56.255Z,43.63
2023-10-23T21:58:24.857Z,43.59
2023-10-23T22:00:54.956Z,43.75
2023-10-23T22:03:23.532Z,43.76
2023-10-23T22:05:52.643Z,43.80
2023-10-23T22:08:21.317Z,43.90
2023-10-23T22:10:49.806Z,43.73
2023-10-23T22:13:18.317Z,43.85
2023-10-23T22:15:46.783Z,44.09
2023-10-23T22:18:16.109Z,43.73
2023-10-23T22:20:44.095Z,43.80
2023-10-23T22:23:12.010Z,43.76
2023-10-23T22:25:40.534Z,43.71
2023-10-23T22:28:08.895Z,43.95
2023-10-23T22:30:35.893Z,43.98
2023-10-23T22:33:14.457Z,43.75
2023-10-23T22:35:44.567Z,43.68
2023-10-23T22:38:14.871Z,43.76
2023-10-23T22:40:43.500Z,43.98
2023-10-23T22:43:11.816Z,43.61
2023-10-23T22:45:51.496Z,43.93
2023-10-23T22:48:27.523Z,43.58
2023-10-23T22:50:57.481Z,43.83
2023-10-23T22:53:26.032Z,43.61
2023-10-23T22:55:55.669Z,43.77
2023-10-23T22:58:26.435Z,43.61
2023-10-23T23:00:55.199Z,43.76
2023-10-23T23:03:23.924Z,43.79
2023-10-23T23:06:09.342Z,43.76
2023-10-23T23:08:40.800Z,43.79
2023-10-23T23:11:09.323Z,43.67
2023-10-23T23:13:37.885Z,43.71
2023-10-23T23:16:07.076Z,43.83
2023-10-23T23:18:35.569Z,43.72
2023-10-23T23:21:05.152Z,43.48
2023-10-23T23:23:34.472Z,44.02
2023-10-23T23:26:03.558Z,43.42
2023-10-23T23:28:31.603Z,43.93
2023-10-23T23:30:59.534Z,43.82
2023-10-23T23:33:27.533Z,43.69
2023-10-23T23:35:56.424Z,43.77
2023-10-23T23:38:24.478Z,43.80
2023-10-23T23:40:53.836Z,43.69
2023-10-23T23:43:21.790Z,43.93
2023-10-23T23:45:50.341Z,43.90
2023-10-23T23:48:18.331Z,43.65
2023-10-23T23:50:46.311Z,43.75
2023-10-23T23:53:14.223Z,43.99
2023-10-23T23:55:42.713Z,43.83
2023-10-23T23:58:12.354Z,43.75
